Time;durP1;ratioP1;P1;durP2;ratioP2;P2;SDS_P1;SDS_P2;PMS_P1;PMS_P2;Temp;Humidity;BMP_temperature;BMP_pressure;BME280_temperature;BME280_humidity;BME280_pressure;Samples;Min_cycle;Max_cycle;Signal;HPM_P1;HPM_P2
2022/05/24 00:01:33;;;;;;;;;;;13.50;99.90;;;;;;5117976;28;20218;-78
2022/05/24 00:03:59;;;;;;;;;;;13.40;99.90;;;;;;5118100;28;19914;-78
2022/05/24 00:06:27;;;;;;;;;;;13.40;99.90;;;;;;5114672;28;19912;-78
2022/05/24 00:08:53;;;;;;;;;;;13.40;99.90;;;;;;5117861;28;19923;-79
2022/05/24 00:11:18;;;;;;;;;;;13.40;99.90;;;;;;5116848;28;19914;-77
2022/05/24 00:13:44;;;;;;;;;;;13.40;99.90;;;;;;5117969;28;20002;-78
2022/05/24 00:16:10;;;;;;;;;;;13.50;99.90;;;;;;5116889;28;19938;-79
2022/05/24 00:18:35;;;;;;;;;;;13.50;99.90;;;;;;5117972;28;20202;-78
2022/05/24 00:21:03;;;;;;;;;;;13.50;99.90;;;;;;5117902;28;20271;-78
2022/05/24 00:23:29;;;;;;;;;;;13.50;99.90;;;;;;5112129;28;19989;-76
2022/05/24 00:25:56;;;;;;;;;;;13.60;99.90;;;;;;5111542;28;19959;-79
2022/05/24 00:28:23;;;;;;;;;;;13.50;99.90;;;;;;5087401;28;19920;-77
2022/05/24 00:30:49;;;;;;;;;;;13.50;99.90;;;;;;5109772;28;19916;-78
2022/05/24 00:33:15;;;;;;;;;;;13.60;99.90;;;;;;5101182;28;19923;-79
2022/05/24 00:35:41;;;;;;;;;;;13.60;99.90;;;;;;5105204;28;19920;-78
2022/05/24 00:38:09;;;;;;;;;;;13.60;99.90;;;;;;5109179;28;19962;-79
2022/05/24 00:40:53;;;;;;;;;;;13.60;99.90;;;;;;5115087;28;19919;-77
2022/05/24 00:43:37;;;;;;;;;;;13.50;99.90;;;;;;5117255;28;19908;-77
2022/05/24 00:46:07;;;;;;;;;;;13.60;99.90;;;;;;5116472;28;20205;-78
2022/05/24 00:48:37;;;;;;;;;;;13.60;99.90;;;;;;5117027;28;19974;-77
2022/05/24 00:51:03;;;;;;;;;;;13.50;99.90;;;;;;5117025;28;20249;-78
2022/05/24 00:53:42;;;;;;;;;;;13.60;99.90;;;;;;5117154;28;19914;-77
2022/05/24 00:56:15;;;;;;;;;;;13.60;99.90;;;;;;5117132;28;19908;-77
2022/05/24 00:58:51;;;;;;;;;;;13.60;99.90;;;;;;5113692;27;19912;-77
2022/05/24 01:01:19;;;;;;;;;;;13.60;99.90;;;;;;5113197;28;20195;-77
2022/05/24 01:03:45;;;;;;;;;;;13.60;99.90;;;;;;5113480;28;19962;-78
2022/05/24 01:06:11;;;;;;;;;;;13.70;99.90;;;;;;5113253;28;19973;-78
2022/05/24 01:08:37;;;;;;;;;;;13.70;99.90;;;;;;5112997;28;19911;-79
2022/05/24 01:11:03;;;;;;;;;;;13.70;99.90;;;;;;5115985;28;20256;-78
2022/05/24 01:13:30;;;;;;;;;;;13.60;99.90;;;;;;5112565;28;20213;-77
2022/05/24 01:15:55;;;;;;;;;;;13.60;99.90;;;;;;5104858;28;20417;-77
2022/05/24 01:18:23;;;;;;;;;;;13.60;99.90;;;;;;5092185;28;19954;-77
2022/05/24 01:20:51;;;;;;;;;;;13.60;99.90;;;;;;5093407;28;20318;-77
2022/05/24 01:23:23;;;;;;;;;;;13.60;99.90;;;;;;5093085;28;19908;-77
2022/05/24 01:26:00;;;;;;;;;;;13.60;99.90;;;;;;5092085;28;20242;-77
2022/05/24 01:28:38;;;;;;;;;;;13.60;99.90;;;;;;5093617;28;20318;-77
2022/05/24 01:31:04;;;;;;;;;;;13.60;99.90;;;;;;5095797;28;19915;-77
2022/05/24 01:36:15;;;;;;;;;;;13.60;99.90;;;;;;5096403;28;19954;-77
2022/05/24 01:38:46;;;;;;;;;;;13.60;99.90;;;;;;5108317;28;20370;-77
2022/05/24 01:41:14;;;;;;;;;;;13.60;99.90;;;;;;5115613;28;19916;-77
2022/05/24 01:43:40;;;;;;;;;;;13.60;99.90;;;;;;5116031;28;19994;-76
2022/05/24 01:46:07;;;;;;;;;;;13.60;99.90;;;;;;5115204;28;19951;-76
2022/05/24 01:48:42;;;;;;;;;;;13.50;99.90;;;;;;5116177;28;19908;-76
2022/05/24 01:51:10;;;;;;;;;;;13.50;99.90;;;;;;5097146;28;19999;-77
2022/05/24 01:53:41;;;;;;;;;;;13.50;99.90;;;;;;5095665;28;19923;-77
2022/05/24 01:56:08;;;;;;;;;;;13.60;99.90;;;;;;5094681;28;19961;-76
2022/05/24 01:58:36;;;;;;;;;;;13.50;99.90;;;;;;5095683;28;19912;-76
2022/05/24 02:01:05;;;;;;;;;;;13.50;99.90;;;;;;5095879;28;19912;-78
2022/05/24 02:03:31;;;;;;;;;;;13.50;99.90;;;;;;5094572;28;19997;-76
2022/05/24 02:05:58;;;;;;;;;;;13.40;99.90;;;;;;5095561;28;20278;-78
2022/05/24 02:08:23;;;;;;;;;;;13.40;99.90;;;;;;5128742;28;19915;-78
2022/05/24 02:11:01;;;;;;;;;;;13.30;99.90;;;;;;5094591;28;19908;-78
2022/05/24 02:13:38;;;;;;;;;;;13.30;99.90;;;;;;5114046;28;19942;-76
2022/05/24 02:16:06;;;;;;;;;;;13.30;99.90;;;;;;5116064;28;19931;-76
2022/05/24 02:18:32;;;;;;;;;;;13.40;99.90;;;;;;5115790;28;19950;-78
2022/05/24 02:20:58;;;;;;;;;;;13.40;99.90;;;;;;5114822;28;19955;-77
2022/05/24 02:23:24;;;;;;;;;;;13.40;99.90;;;;;;5114744;28;19935;-77
2022/05/24 02:25:53;;;;;;;;;;;13.30;99.90;;;;;;5149110;27;19920;-78
2022/05/24 02:28:20;;;;;;;;;;;13.30;99.90;;;;;;5114638;28;19915;-78
2022/05/24 02:30:48;;;;;;;;;;;13.30;99.90;;;;;;5113566;28;19977;-77
2022/05/24 02:33:14;;;;;;;;;;;13.30;99.90;;;;;;5109344;28;19912;-77
2022/05/24 02:35:39;;;;;;;;;;;13.30;99.90;;;;;;5114152;28;20018;-78
2022/05/24 02:38:05;;;;;;;;;;;13.20;99.90;;;;;;5107455;28;19953;-77
2022/05/24 02:43:15;;;;;;;;;;;13.10;99.90;;;;;;5114072;28;19926;-77
2022/05/24 02:45:41;;;;;;;;;;;13.10;99.90;;;;;;5106172;28;19916;-78
2022/05/24 02:48:07;;;;;;;;;;;13.10;99.90;;;;;;5112972;28;19916;-77
2022/05/24 02:50:33;;;;;;;;;;;13.10;99.90;;;;;;5113621;28;19968;-78
2022/05/24 02:52:58;;;;;;;;;;;13.10;99.90;;;;;;5106487;28;19919;-77
2022/05/24 02:55:24;;;;;;;;;;;13.00;99.90;;;;;;5118413;28;19951;-78
2022/05/24 02:57:49;;;;;;;;;;;13.00;99.90;;;;;;5118312;28;20352;-77
2022/05/24 03:00:17;;;;;;;;;;;13.00;99.90;;;;;;5118075;28;19915;-77
2022/05/24 03:02:42;;;;;;;;;;;13.00;99.90;;;;;;5119490;27;19964;-78
2022/05/24 03:05:10;;;;;;;;;;;13.00;99.90;;;;;;5119131;27;19911;-79
2022/05/24 03:10:20;;;;;;;;;;;12.90;99.90;;;;;;5119355;28;19922;-77
2022/05/24 03:15:29;;;;;;;;;;;13.00;99.90;;;;;;5119413;28;19954;-77
2022/05/24 03:17:55;;;;;;;;;;;13.00;99.90;;;;;;5152222;27;20226;-78
2022/05/24 03:20:21;;;;;;;;;;;12.90;99.90;;;;;;5118725;28;19915;-77
2022/05/24 03:22:47;;;;;;;;;;;12.90;99.90;;;;;;5118868;28;19916;-81
2022/05/24 03:25:13;;;;;;;;;;;12.90;99.90;;;;;;5118725;28;19908;-77
2022/05/24 03:27:39;;;;;;;;;;;12.90;99.90;;;;;;5117764;28;20318;-77
2022/05/24 03:30:06;;;;;;;;;;;12.90;99.90;;;;;;5117543;28;19994;-77
2022/05/24 03:32:33;;;;;;;;;;;12.80;99.90;;;;;;5118964;28;19912;-76
2022/05/24 03:35:06;;;;;;;;;;;12.80;99.90;;;;;;5117469;28;20321;-76
2022/05/24 03:37:31;;;;;;;;;;;12.70;99.90;;;;;;5117594;28;19908;-77
2022/05/24 03:39:57;;;;;;;;;;;12.70;99.90;;;;;;5117175;28;19922;-77
2022/05/24 03:42:22;;;;;;;;;;;12.70;99.90;;;;;;5100308;28;20002;-79
2022/05/24 03:44:48;;;;;;;;;;;12.70;99.90;;;;;;5100085;28;19919;-77
2022/05/24 03:47:14;;;;;;;;;;;12.70;99.90;;;;;;5118455;28;20295;-76
2022/05/24 03:49:40;;;;;;;;;;;12.70;99.90;;;;;;5118169;28;19912;-77
2022/05/24 03:52:06;;;;;;;;;;;12.60;99.90;;;;;;5118488;28;19972;-77
2022/05/24 03:54:32;;;;;;;;;;;12.60;99.90;;;;;;5118213;28;20303;-79
2022/05/24 03:59:42;;;;;;;;;;;12.60;99.90;;;;;;5118246;28;19914;-76
2022/05/24 04:02:08;;;;;;;;;;;12.60;99.90;;;;;;5118363;28;19912;-76
2022/05/24 04:04:34;;;;;;;;;;;12.60;99.90;;;;;;5117109;28;20210;-76
2022/05/24 04:06:59;;;;;;;;;;;12.60;99.90;;;;;;5118250;28;19916;-78
2022/05/24 04:09:25;;;;;;;;;;;12.60;99.90;;;;;;5117694;28;19911;-77
2022/05/24 04:11:53;;;;;;;;;;;12.60;99.90;;;;;;5117966;28;19966;-77
2022/05/24 04:14:18;;;;;;;;;;;12.70;99.90;;;;;;5117843;28;19961;-78
2022/05/24 04:16:44;;;;;;;;;;;12.60;99.90;;;;;;5117976;28;19911;-77
2022/05/24 04:19:11;;;;;;;;;;;12.70;99.90;;;;;;5116436;28;19976;-79
2022/05/24 04:21:36;;;;;;;;;;;12.70;99.90;;;;;;5116709;28;19920;-80
2022/05/24 04:24:02;;;;;;;;;;;12.70;99.90;;;;;;5118012;28;20391;-79
2022/05/24 04:26:27;;;;;;;;;;;12.70;99.90;;;;;;5116875;28;20222;-82
2022/05/24 04:28:53;;;;;;;;;;;12.60;99.90;;;;;;5117417;28;20309;-78
2022/05/24 04:31:18;;;;;;;;;;;12.60;99.90;;;;;;5116398;28;19907;-80
2022/05/24 04:33:44;;;;;;;;;;;12.60;99.90;;;;;;5116391;28;19908;-80
2022/05/24 04:36:10;;;;;;;;;;;12.70;99.90;;;;;;5116239;28;19951;-81
2022/05/24 04:38:35;;;;;;;;;;;12.70;99.90;;;;;;5116308;28;19920;-81
2022/05/24 04:43:45;;;;;;;;;;;12.70;99.90;;;;;;5105339;28;19931;-80
2022/05/24 04:46:12;;;;;;;;;;;12.70;99.90;;;;;;5096853;28;20298;-80
2022/05/24 04:48:37;;;;;;;;;;;12.80;99.90;;;;;;5095725;28;19915;-79
2022/05/24 04:51:03;;;;;;;;;;;12.80;99.90;;;;;;5097059;28;19912;-80
2022/05/24 04:53:29;;;;;;;;;;;12.80;99.90;;;;;;5096932;28;20003;-81
2022/05/24 04:55:55;;;;;;;;;;;12.90;99.90;;;;;;5106339;28;19912;-78
2022/05/24 04:58:20;;;;;;;;;;;12.90;99.90;;;;;;5108917;28;19920;-79
2022/05/24 05:00:48;;;;;;;;;;;12.90;99.90;;;;;;5113892;28;20007;-79
2022/05/24 05:03:14;;;;;;;;;;;12.90;99.90;;;;;;5108685;28;19916;-80
2022/05/24 05:05:41;;;;;;;;;;;12.80;99.90;;;;;;5111391;28;20222;-82
2022/05/24 05:08:07;;;;;;;;;;;12.80;99.90;;;;;;5112113;28;19989;-79
2022/05/24 05:10:36;;;;;;;;;;;12.80;99.90;;;;;;5113731;27;20271;-79
2022/05/24 05:13:03;;;;;;;;;;;12.90;99.90;;;;;;5110219;28;19916;-78
2022/05/24 05:15:29;;;;;;;;;;;12.90;99.90;;;;;;5111183;28;19969;-81
2022/05/24 05:18:05;;;;;;;;;;;13.00;99.90;;;;;;5110348;28;20253;-78
2022/05/24 05:20:31;;;;;;;;;;;13.10;99.90;;;;;;5108882;28;19920;-80
2022/05/24 05:22:57;;;;;;;;;;;13.10;99.90;;;;;;5110404;28;20222;-80
2022/05/24 05:25:22;;;;;;;;;;;13.10;99.90;;;;;;5108559;28;19919;-79
2022/05/24 05:27:48;;;;;;;;;;;13.10;99.90;;;;;;5097482;28;19912;-79
2022/05/24 05:32:58;;;;;;;;;;;13.10;99.90;;;;;;5110136;28;19956;-79
2022/05/24 05:35:23;;;;;;;;;;;13.00;99.90;;;;;;5114530;28;19912;-79
2022/05/24 05:37:49;;;;;;;;;;;13.00;99.90;;;;;;5110926;28;20010;-78
2022/05/24 05:40:15;;;;;;;;;;;13.00;99.90;;;;;;5138816;27;19920;-80
2022/05/24 05:42:40;;;;;;;;;;;13.10;99.90;;;;;;5108668;28;20375;-78
2022/05/24 05:45:10;;;;;;;;;;;13.00;99.90;;;;;;5110458;28;19912;-78
2022/05/24 05:47:36;;;;;;;;;;;13.10;99.90;;;;;;5102382;28;19930;-79
2022/05/24 05:50:02;;;;;;;;;;;13.10;99.90;;;;;;5098941;28;19917;-79
2022/05/24 05:52:28;;;;;;;;;;;13.20;99.90;;;;;;5114216;28;20354;-82
2022/05/24 05:54:53;;;;;;;;;;;13.20;99.90;;;;;;5115128;28;19908;-80
2022/05/24 05:57:19;;;;;;;;;;;13.20;99.90;;;;;;5116033;28;19912;-78
2022/05/24 05:59:44;;;;;;;;;;;13.20;99.90;;;;;;5116024;28;19907;-78
2022/05/24 06:02:10;;;;;;;;;;;13.20;99.90;;;;;;5116315;28;19916;-77
2022/05/24 06:04:36;;;;;;;;;;;13.30;99.90;;;;;;5114971;28;19918;-77
2022/05/24 06:07:02;;;;;;;;;;;13.30;99.90;;;;;;5116039;28;19908;-79
2022/05/24 06:09:27;;;;;;;;;;;13.30;99.90;;;;;;5115948;28;19943;-77
2022/05/24 06:11:53;;;;;;;;;;;13.30;99.90;;;;;;5106462;28;20219;-79
2022/05/24 06:14:19;;;;;;;;;;;13.30;99.90;;;;;;5114360;28;19942;-78
2022/05/24 06:16:44;;;;;;;;;;;13.40;99.90;;;;;;5113549;28;19961;-77
2022/05/24 06:19:10;;;;;;;;;;;13.30;99.90;;;;;;5107281;28;19920;-76
2022/05/24 06:21:35;;;;;;;;;;;13.40;99.90;;;;;;5105911;28;19924;-78
2022/05/24 06:24:03;;;;;;;;;;;13.40;99.90;;;;;;5110045;28;20306;-78
2022/05/24 06:26:29;;;;;;;;;;;13.30;99.90;;;;;;5094958;28;19961;-79
2022/05/24 06:28:56;;;;;;;;;;;13.30;99.90;;;;;;5115102;28;20217;-77
2022/05/24 06:31:21;;;;;;;;;;;13.40;99.90;;;;;;5117468;28;20069;-81
2022/05/24 06:33:48;;;;;;;;;;;13.60;99.90;;;;;;5117141;28;20377;-82
2022/05/24 06:36:13;;;;;;;;;;;13.70;99.90;;;;;;5113279;28;19912;-78
2022/05/24 06:38:39;;;;;;;;;;;13.80;99.90;;;;;;5115957;28;19924;-79
2022/05/24 06:41:05;;;;;;;;;;;13.90;99.90;;;;;;5114476;28;19924;-80
2022/05/24 06:43:30;;;;;;;;;;;13.80;99.90;;;;;;5115498;28;19919;-80
2022/05/24 06:45:56;;;;;;;;;;;13.80;99.90;;;;;;5117735;28;19919;-77
2022/05/24 06:48:22;;;;;;;;;;;13.70;99.90;;;;;;5117621;27;19918;-77
2022/05/24 06:50:47;;;;;;;;;;;13.80;99.90;;;;;;5118310;28;19994;-79
2022/05/24 06:53:13;;;;;;;;;;;13.90;99.90;;;;;;5110993;28;19915;-80
2022/05/24 06:55:39;;;;;;;;;;;14.10;99.90;;;;;;5117094;28;19915;-80
2022/05/24 06:58:05;;;;;;;;;;;14.20;99.90;;;;;;5117793;28;19915;-79
2022/05/24 07:03:15;;;;;;;;;;;14.50;99.90;;;;;;5117013;28;19922;-80
2022/05/24 07:05:42;;;;;;;;;;;14.30;99.90;;;;;;5116740;28;19927;-79
2022/05/24 07:08:08;;;;;;;;;;;14.20;99.90;;;;;;5116487;28;19962;-78
2022/05/24 07:10:34;;;;;;;;;;;14.10;99.90;;;;;;5111677;28;19918;-77
2022/05/24 07:13:03;;;;;;;;;;;14.10;99.90;;;;;;5107130;28;19966;-78
2022/05/24 07:15:28;;;;;;;;;;;14.00;99.90;;;;;;5108161;28;19916;-78
2022/05/24 07:17:54;;;;;;;;;;;13.90;99.90;;;;;;5115673;28;19977;-78
2022/05/24 07:20:20;;;;;;;;;;;13.90;99.90;;;;;;5111119;28;20006;-77
2022/05/24 07:22:48;;;;;;;;;;;13.90;99.90;;;;;;5115562;28;20290;-78
2022/05/24 07:25:14;;;;;;;;;;;13.90;99.90;;;;;;5107547;28;20014;-79
2022/05/24 07:27:39;;;;;;;;;;;13.90;99.90;;;;;;5115945;28;19951;-76
2022/05/24 07:30:05;;;;;;;;;;;13.90;99.90;;;;;;5108165;28;19946;-78
2022/05/24 07:32:31;;;;;;;;;;;13.90;99.90;;;;;;5116888;28;20240;-76
2022/05/24 07:34:59;;;;;;;;;;;14.00;99.90;;;;;;5115217;28;19916;-79
2022/05/24 07:37:24;;;;;;;;;;;14.20;99.90;;;;;;5115575;28;19955;-77
2022/05/24 07:45:47;;;;;;;;;;;14.20;99.90;;;;;;5114161;27;19970;-77
2022/05/24 07:48:04;;;;;;;;;;;14.60;99.90;;;;;;5116727;28;20210;-77
2022/05/24 07:50:30;;;;;;;;;;;14.80;99.90;;;;;;5116767;27;19920;-77
2022/05/24 07:52:55;;;;;;;;;;;14.80;99.90;;;;;;5109819;28;19920;-77
2022/05/24 07:55:21;;;;;;;;;;;14.90;99.90;;;;;;5116467;28;19916;-76
2022/05/24 07:57:47;;;;;;;;;;;15.10;99.90;;;;;;5115762;28;19918;-77
2022/05/24 08:00:12;;;;;;;;;;;15.00;99.90;;;;;;5111400;27;20036;-77
2022/05/24 08:02:38;;;;;;;;;;;15.00;99.90;;;;;;5116271;28;19939;-78
2022/05/24 08:05:05;;;;;;;;;;;14.90;99.90;;;;;;5118181;28;19915;-79
2022/05/24 08:07:31;;;;;;;;;;;14.90;99.90;;;;;;5117395;28;19993;-76
2022/05/24 08:09:57;;;;;;;;;;;14.80;99.90;;;;;;5108740;28;19908;-77
2022/05/24 08:12:23;;;;;;;;;;;14.80;99.90;;;;;;5096187;28;19999;-76
2022/05/24 08:14:48;;;;;;;;;;;14.90;99.90;;;;;;5115945;27;19912;-77
2022/05/24 08:17:14;;;;;;;;;;;15.00;99.90;;;;;;5116914;28;19908;-76
2022/05/24 08:19:40;;;;;;;;;;;15.30;99.90;;;;;;5113933;28;19915;-75
2022/05/24 08:22:05;;;;;;;;;;;15.50;99.90;;;;;;5116856;28;20337;-77
2022/05/24 08:24:31;;;;;;;;;;;16.00;99.90;;;;;;5116944;28;19912;-76
2022/05/24 08:26:57;;;;;;;;;;;16.30;99.90;;;;;;5116827;28;20201;-78
2022/05/24 08:29:22;;;;;;;;;;;16.60;99.90;;;;;;5116107;28;19908;-76
2022/05/24 08:31:49;;;;;;;;;;;17.00;99.90;;;;;;5113735;28;19916;-76
2022/05/24 08:34:15;;;;;;;;;;;17.00;99.90;;;;;;5115250;28;19908;-78
2022/05/24 08:36:40;;;;;;;;;;;16.80;99.90;;;;;;5115185;28;19916;-76
2022/05/24 08:39:06;;;;;;;;;;;16.90;99.90;;;;;;5105843;28;20203;-75
2022/05/24 08:41:31;;;;;;;;;;;17.20;99.90;;;;;;5097381;28;19974;-76
2022/05/24 08:48:22;;;;;;;;;;;17.10;99.90;;;;;;5105342;28;19916;-76
2022/05/24 08:49:31;;;;;;;;;;;16.90;99.90;;;;;;5113741;28;19931;-75
2022/05/24 08:51:59;;;;;;;;;;;17.40;99.90;;;;;;5115358;28;19916;-77
2022/05/24 08:54:35;;;;;;;;;;;17.90;99.90;;;;;;5114059;28;19918;-76
2022/05/24 08:57:02;;;;;;;;;;;17.50;99.90;;;;;;5115229;28;19919;-76
2022/05/24 08:59:36;;;;;;;;;;;17.10;99.90;;;;;;5112888;27;20260;-75
2022/05/24 09:02:03;;;;;;;;;;;16.30;99.90;;;;;;5113497;28;19916;-76
2022/05/24 09:04:29;;;;;;;;;;;15.40;99.90;;;;;;5113895;28;19915;-76
2022/05/24 09:07:03;;;;;;;;;;;14.90;99.90;;;;;;5105947;28;19912;-75
2022/05/24 09:09:43;;;;;;;;;;;14.40;99.90;;;;;;5106367;28;20007;-77
2022/05/24 09:12:24;;;;;;;;;;;14.10;99.90;;;;;;5106786;28;19947;-77
2022/05/24 09:15:13;;;;;;;;;;;13.90;99.90;;;;;;5114678;28;20299;-79
2022/05/24 09:17:57;;;;;;;;;;;13.90;99.90;;;;;;5106913;28;19916;-78
2022/05/24 09:20:28;;;;;;;;;;;14.00;99.90;;;;;;5112411;28;20376;-76
2022/05/24 09:22:58;;;;;;;;;;;13.90;99.90;;;;;;5113938;28;20333;-78
2022/05/24 09:25:23;;;;;;;;;;;13.90;99.90;;;;;;5111710;28;19911;-76
2022/05/24 09:27:51;;;;;;;;;;;14.00;99.90;;;;;;5113269;28;19961;-78
2022/05/24 09:30:29;;;;;;;;;;;14.10;99.90;;;;;;5114540;28;20252;-77
2022/05/24 09:33:14;;;;;;;;;;;14.10;99.90;;;;;;5107243;28;20352;-77
2022/05/24 09:35:41;;;;;;;;;;;14.00;99.90;;;;;;5112009;28;19918;-78
2022/05/24 09:38:08;;;;;;;;;;;14.30;99.90;;;;;;5110981;28;19920;-78
2022/05/24 09:40:43;;;;;;;;;;;14.50;99.90;;;;;;5113637;28;19912;-77
2022/05/24 09:43:17;;;;;;;;;;;14.80;99.90;;;;;;5112735;28;19943;-77
2022/05/24 09:45:45;;;;;;;;;;;14.80;99.90;;;;;;5112206;28;19922;-74
2022/05/24 09:48:20;;;;;;;;;;;14.70;99.90;;;;;;5106405;28;19919;-77
2022/05/24 09:50:50;;;;;;;;;;;14.50;99.90;;;;;;5111703;28;19927;-78
2022/05/24 09:53:16;;;;;;;;;;;14.30;99.90;;;;;;5114385;28;19916;-77
2022/05/24 09:56:08;;;;;;;;;;;14.20;99.90;;;;;;5114480;28;19927;-74
2022/05/24 09:58:54;;;;;;;;;;;14.20;99.90;;;;;;5051057;28;19916;-76
2022/05/24 10:01:35;;;;;;;;;;;14.50;99.90;;;;;;5051050;28;19959;-74
2022/05/24 10:04:11;;;;;;;;;;;14.70;99.90;;;;;;5053730;28;19920;-79
2022/05/24 10:06:37;;;;;;;;;;;14.80;99.90;;;;;;5055734;28;19913;-79
2022/05/24 10:09:11;;;;;;;;;;;14.70;99.90;;;;;;5039931;28;20551;-79
2022/05/24 10:11:43;;;;;;;;;;;14.50;99.90;;;;;;5042231;28;19999;-78
2022/05/24 10:14:11;;;;;;;;;;;14.40;99.90;;;;;;5057660;28;19944;-81
2022/05/24 10:16:42;;;;;;;;;;;14.40;99.90;;;;;;5040866;28;19909;-75
2022/05/24 10:19:26;;;;;;;;;;;14.50;99.90;;;;;;5053701;28;19916;-78
2022/05/24 10:21:57;;;;;;;;;;;14.60;99.90;;;;;;5057488;28;19912;-80
2022/05/24 10:24:29;;;;;;;;;;;15.00;99.90;;;;;;5040605;28;19955;-78
2022/05/24 10:26:58;;;;;;;;;;;15.00;99.90;;;;;;5057495;28;19916;-75
2022/05/24 10:29:35;;;;;;;;;;;15.00;99.90;;;;;;5040343;28;19909;-77
2022/05/24 10:32:05;;;;;;;;;;;15.10;99.90;;;;;;5057332;28;20399;-77
2022/05/24 10:40:16;;;;;;;;;;;15.40;99.90;;;;;;5116301;28;20390;-78
2022/05/24 10:42:50;;;;;;;;;;;15.40;99.90;;;;;;5102619;28;19919;-73
2022/05/24 10:45:17;;;;;;;;;;;15.80;99.90;;;;;;5119711;28;20014;-74
2022/05/24 10:47:50;;;;;;;;;;;16.30;99.90;;;;;;5119227;28;20006;-74
2022/05/24 10:50:22;;;;;;;;;;;16.40;99.90;;;;;;5103896;28;20266;-75
2022/05/24 10:52:54;;;;;;;;;;;16.30;99.90;;;;;;5101903;28;19912;-75
2022/05/24 10:55:25;;;;;;;;;;;16.10;99.90;;;;;;5101305;28;20002;-75
2022/05/24 10:58:02;;;;;;;;;;;16.10;99.90;;;;;;5115208;28;19916;-75
2022/05/24 11:00:37;;;;;;;;;;;16.70;99.90;;;;;;5142646;27;19968;-75
2022/05/24 11:03:02;;;;;;;;;;;17.50;99.90;;;;;;5116202;28;20322;-75
2022/05/24 11:05:31;;;;;;;;;;;17.50;99.90;;;;;;5116536;28;19954;-78
2022/05/24 11:08:01;;;;;;;;;;;17.90;99.90;;;;;;5115792;28;19919;-75
2022/05/24 11:10:34;;;;;;;;;;;18.10;99.90;;;;;;5112270;28;20306;-76
2022/05/24 11:13:07;;;;;;;;;;;17.80;99.90;;;;;;5112475;28;19920;-78
2022/05/24 11:15:39;;;;;;;;;;;17.30;99.90;;;;;;5114456;28;20281;-76
2022/05/24 11:18:15;;;;;;;;;;;16.80;99.90;;;;;;5104690;28;20230;-75
2022/05/24 11:20:44;;;;;;;;;;;16.60;99.90;;;;;;5113655;28;19920;-75
2022/05/24 11:23:26;;;;;;;;;;;16.50;99.90;;;;;;5104482;28;20271;-75
2022/05/24 11:26:00;;;;;;;;;;;16.70;99.90;;;;;;5105362;28;19915;-75
2022/05/24 11:28:29;;;;;;;;;;;16.90;99.90;;;;;;5113078;28;19922;-74
2022/05/24 11:31:14;;;;;;;;;;;17.10;99.90;;;;;;5114094;28;20216;-75
2022/05/24 11:33:41;;;;;;;;;;;17.10;99.90;;;;;;5114085;28;19916;-76
2022/05/24 11:36:21;;;;;;;;;;;17.20;99.90;;;;;;5114184;28;19920;-75
2022/05/24 11:38:48;;;;;;;;;;;17.60;99.90;;;;;;5105518;28;19926;-74
2022/05/24 11:41:19;;;;;;;;;;;17.80;99.90;;;;;;5113731;28;19973;-76
2022/05/24 11:43:44;;;;;;;;;;;18.10;99.90;;;;;;5112489;28;20227;-74
2022/05/24 11:46:30;;;;;;;;;;;18.00;99.90;;;;;;5112585;28;19935;-78
2022/05/24 11:48:56;;;;;;;;;;;17.70;99.90;;;;;;5111812;28;19915;-74
2022/05/24 11:51:27;;;;;;;;;;;17.20;99.90;;;;;;5112779;28;20283;-75
2022/05/24 11:53:53;;;;;;;;;;;16.90;99.90;;;;;;5104810;27;19919;-74
2022/05/24 11:56:19;;;;;;;;;;;17.10;99.90;;;;;;5110898;28;19912;-74
2022/05/24 11:58:47;;;;;;;;;;;17.70;99.90;;;;;;5107659;28;19923;-74
2022/05/24 12:01:16;;;;;;;;;;;17.90;99.90;;;;;;5104734;28;19988;-76
2022/05/24 12:09:55;;;;;;;;;;;18.60;99.90;;;;;;5112562;28;19961;-75
2022/05/24 12:12:28;;;;;;;;;;;17.90;99.90;;;;;;5111999;28;19920;-74
2022/05/24 12:15:06;;;;;;;;;;;17.30;99.90;;;;;;5105772;28;19916;-77
2022/05/24 12:17:32;;;;;;;;;;;17.10;99.90;;;;;;5104818;28;20041;-75
2022/05/24 12:19:59;;;;;;;;;;;17.00;99.90;;;;;;5111094;28;20014;-75
2022/05/24 12:22:32;;;;;;;;;;;17.60;99.90;;;;;;5105429;28;19919;-78
2022/05/24 12:25:03;;;;;;;;;;;17.90;99.90;;;;;;5107090;28;20614;-75
2022/05/24 12:27:29;;;;;;;;;;;18.00;99.90;;;;;;5108851;28;20000;-76
2022/05/24 12:30:00;;;;;;;;;;;17.90;99.90;;;;;;5106123;28;19965;-75
2022/05/24 12:32:29;;;;;;;;;;;18.00;99.90;;;;;;5104885;28;19916;-75
2022/05/24 12:35:01;;;;;;;;;;;18.50;99.90;;;;;;5110461;28;19916;-74
2022/05/24 12:37:30;;;;;;;;;;;18.90;99.90;;;;;;5111331;28;19954;-75
2022/05/24 12:40:06;;;;;;;;;;;18.50;99.90;;;;;;5112146;28;20290;-74
2022/05/24 12:42:31;;;;;;;;;;;18.60;99.90;;;;;;5103279;28;20022;-75
2022/05/24 12:45:00;;;;;;;;;;;18.70;99.90;;;;;;5111055;27;20266;-76
2022/05/24 12:47:26;;;;;;;;;;;18.60;99.90;;;;;;5106771;28;19915;-76
2022/05/24 12:49:56;;;;;;;;;;;18.40;99.90;;;;;;5110778;28;19915;-74
2022/05/24 12:52:24;;;;;;;;;;;18.60;99.90;;;;;;5110308;28;19938;-76
2022/05/24 12:54:51;;;;;;;;;;;18.30;99.90;;;;;;5104315;28;19923;-75
2022/05/24 12:57:32;;;;;;;;;;;18.30;99.90;;;;;;5103924;28;20299;-75
2022/05/24 12:59:59;;;;;;;;;;;18.00;99.90;;;;;;5110718;28;19915;-74
2022/05/24 13:02:34;;;;;;;;;;;17.60;99.90;;;;;;5109797;28;19931;-74
2022/05/24 13:05:06;;;;;;;;;;;17.40;99.90;;;;;;5111085;28;19912;-74
2022/05/24 13:07:35;;;;;;;;;;;17.40;99.90;;;;;;5108934;28;19912;-73
2022/05/24 13:10:01;;;;;;;;;;;17.30;99.90;;;;;;5113184;28;19919;-75
2022/05/24 13:12:28;;;;;;;;;;;17.40;99.90;;;;;;5106781;28;19919;-75
2022/05/24 13:14:57;;;;;;;;;;;17.30;99.90;;;;;;5115439;28;19911;-74
2022/05/24 13:17:24;;;;;;;;;;;17.40;99.90;;;;;;5113511;28;19912;-75
2022/05/24 13:19:54;;;;;;;;;;;17.60;99.90;;;;;;5113880;28;20248;-75
2022/05/24 13:22:24;;;;;;;;;;;17.60;99.90;;;;;;5107870;28;19935;-74
2022/05/24 13:25:00;;;;;;;;;;;17.50;99.90;;;;;;5114386;27;19915;-75
2022/05/24 13:27:26;;;;;;;;;;;17.50;99.90;;;;;;5113605;28;19916;-73
2022/05/24 13:35:24;;;;;;;;;;;17.90;99.90;;;;;;5113335;28;19918;-74
2022/05/24 13:37:54;;;;;;;;;;;18.00;99.90;;;;;;5114315;28;20002;-75
2022/05/24 13:40:34;;;;;;;;;;;17.80;99.90;;;;;;5112597;28;20256;-77
2022/05/24 13:42:59;;;;;;;;;;;17.50;99.90;;;;;;5113071;28;19962;-74
2022/05/24 13:45:26;;;;;;;;;;;17.80;99.90;;;;;;5112998;28;19963;-75
2022/05/24 13:47:56;;;;;;;;;;;17.60;99.90;;;;;;5114755;28;20199;-74
2022/05/24 13:50:31;;;;;;;;;;;17.40;99.90;;;;;;5116342;28;20286;-75
2022/05/24 13:53:20;;;;;;;;;;;17.50;99.90;;;;;;5110671;28;19908;-77
2022/05/24 13:56:05;;;;;;;;;;;18.00;99.90;;;;;;5104890;28;20314;-75
2022/05/24 13:58:31;;;;;;;;;;;18.40;99.90;;;;;;5113076;28;19926;-74
2022/05/24 14:01:20;;;;;;;;;;;18.50;99.90;;;;;;5105253;28;19915;-74
2022/05/24 14:03:53;;;;;;;;;;;18.70;99.90;;;;;;5104245;28;19965;-79
2022/05/24 14:06:22;;;;;;;;;;;19.00;99.90;;;;;;5101685;28;19916;-74
2022/05/24 14:08:50;;;;;;;;;;;18.50;99.90;;;;;;5112034;28;19938;-74
2022/05/24 14:11:20;;;;;;;;;;;18.30;99.90;;;;;;5113222;28;20268;-75
2022/05/24 14:13:46;;;;;;;;;;;17.90;99.90;;;;;;5112420;28;20207;-75
2022/05/24 14:16:13;;;;;;;;;;;18.20;99.90;;;;;;5107485;28;19916;-75
2022/05/24 14:18:39;;;;;;;;;;;18.20;99.90;;;;;;5110767;28;20007;-75
2022/05/24 14:21:06;;;;;;;;;;;17.90;99.90;;;;;;5110302;28;20011;-75
2022/05/24 14:23:31;;;;;;;;;;;17.80;99.90;;;;;;5111034;28;20654;-74
2022/05/24 14:25:57;;;;;;;;;;;17.70;99.90;;;;;;5111041;28;19916;-74
2022/05/24 14:28:23;;;;;;;;;;;17.70;99.90;;;;;;5109211;28;20222;-74
2022/05/24 14:30:49;;;;;;;;;;;17.80;99.90;;;;;;5111251;28;19916;-74
2022/05/24 14:33:16;;;;;;;;;;;17.80;99.90;;;;;;5099625;28;20010;-73
2022/05/24 14:35:42;;;;;;;;;;;18.20;99.90;;;;;;5102601;28;20330;-74
2022/05/24 14:38:08;;;;;;;;;;;18.40;99.90;;;;;;5085193;28;19924;-76
2022/05/24 14:40:38;;;;;;;;;;;18.80;99.90;;;;;;5110564;28;20203;-74
2022/05/24 14:43:08;;;;;;;;;;;18.80;99.90;;;;;;5109307;28;19923;-74
2022/05/24 14:45:34;;;;;;;;;;;18.70;99.90;;;;;;5108117;28;19961;-75
2022/05/24 14:48:00;;;;;;;;;;;18.70;99.90;;;;;;5108174;28;19923;-75
2022/05/24 14:50:25;;;;;;;;;;;19.00;99.90;;;;;;5114116;27;19931;-75
2022/05/24 14:52:51;;;;;;;;;;;18.80;99.90;;;;;;5112199;28;19927;-75
2022/05/24 14:55:18;;;;;;;;;;;18.30;99.90;;;;;;5111859;28;19916;-74
2022/05/24 14:57:44;;;;;;;;;;;18.20;99.90;;;;;;5114500;28;19916;-75
2022/05/24 15:00:11;;;;;;;;;;;18.40;99.90;;;;;;5104923;28;19923;-74
2022/05/24 15:02:40;;;;;;;;;;;18.60;99.90;;;;;;5114186;27;20199;-75
2022/05/24 15:05:07;;;;;;;;;;;18.70;99.90;;;;;;5106192;28;19931;-76
2022/05/24 15:15:45;;;;;;;;;;;18.60;99.90;;;;;;5113440;28;19922;-76
2022/05/24 15:18:11;;;;;;;;;;;18.90;99.90;;;;;;5109938;27;20002;-76
2022/05/24 15:20:38;;;;;;;;;;;19.00;99.90;;;;;;5106881;28;20549;-76